createdAt,value
2022-10-03T00:00:04.919Z,10.46
2022-10-03T00:01:05.404Z,10.42
2022-10-03T00:02:05.933Z,10.42
2022-10-03T00:03:05.310Z,10.42
2022-10-03T00:04:05.421Z,10.30
2022-10-03T00:05:05.620Z,10.39
2022-10-03T00:06:06.409Z,10.36
2022-10-03T00:07:05.929Z,10.39
2022-10-03T00:08:06.100Z,10.43
2022-10-03T00:09:06.305Z,10.39
2022-10-03T00:10:07.411Z,10.40
2022-10-03T00:11:06.652Z,10.28
2022-10-03T00:12:06.812Z,10.30
2022-10-03T00:13:07.906Z,10.36
2022-10-03T00:14:07.128Z,10.34
2022-10-03T00:15:07.285Z,10.43
2022-10-03T00:16:08.440Z,10.33
2022-10-03T00:17:08.408Z,10.43
2022-10-03T00:18:07.800Z,10.53
2022-10-03T00:19:07.993Z,10.44
2022-10-03T00:20:08.160Z,10.44
2022-10-03T00:21:08.428Z,10.52
2022-10-03T00:22:09.417Z,10.42
2022-10-03T00:23:08.633Z,10.52
2022-10-03T00:24:08.782Z,10.43
2022-10-03T00:25:08.928Z,10.40
2022-10-03T00:26:09.421Z,10.56
2022-10-03T00:27:09.323Z,10.52
2022-10-03T00:28:09.541Z,10.47
2022-10-03T00:29:10.427Z,10.53
2022-10-03T00:30:10.414Z,10.44
2022-10-03T00:31:09.972Z,10.40
2022-10-03T00:32:10.183Z,10.53
2022-10-03T00:33:10.351Z,10.46
2022-10-03T00:34:11.418Z,10.51
2022-10-03T00:35:10.675Z,10.55
2022-10-03T00:36:10.831Z,10.60
2022-10-03T00:37:11.001Z,10.63
2022-10-03T00:38:11.926Z,10.59
2022-10-03T00:39:11.922Z,10.77
2022-10-03T00:40:11.557Z,10.73
2022-10-03T00:41:11.737Z,10.74
2022-10-03T00:42:11.914Z,10.83
2022-10-03T00:43:12.062Z,10.73
2022-10-03T00:44:12.228Z,10.83
2022-10-03T00:45:12.382Z,10.74
2022-10-03T00:46:13.464Z,10.73
2022-10-03T00:47:12.763Z,10.76
2022-10-03T00:48:13.414Z,10.68
2022-10-03T00:49:13.111Z,10.73
2022-10-03T00:50:13.294Z,10.76
2022-10-03T00:51:13.443Z,10.73
2022-10-03T00:52:13.608Z,10.74
2022-10-03T00:53:13.812Z,10.76
2022-10-03T00:54:14.425Z,10.80
2022-10-03T00:55:14.208Z,10.74
2022-10-03T00:56:14.918Z,10.77
2022-10-03T00:57:14.565Z,10.92
2022-10-03T00:58:14.734Z,10.89
2022-10-03T00:59:14.931Z,10.91
2022-10-03T01:00:15.073Z,10.88
2022-10-03T01:01:15.315Z,10.98
2022-10-03T01:02:15.462Z,10.95
2022-10-03T01:03:15.511Z,10.98
2022-10-03T01:04:15.735Z,10.88
2022-10-03T01:05:15.882Z,10.98
2022-10-03T01:06:16.016Z,11.02
2022-10-03T01:07:16.923Z,11.01
2022-10-03T01:08:16.277Z,11.06
2022-10-03T01:09:16.436Z,11.06
2022-10-03T01:10:16.630Z,11.06
2022-10-03T01:11:16.772Z,11.09
2022-10-03T01:12:16.889Z,11.13
2022-10-03T01:13:17.951Z,11.16
2022-10-03T01:14:17.213Z,11.20
2022-10-03T01:15:17.951Z,11.21
2022-10-03T01:16:17.627Z,11.19
2022-10-03T01:17:18.429Z,11.21
2022-10-03T01:18:17.927Z,11.19
2022-10-03T01:19:18.065Z,11.21
2022-10-03T01:20:18.211Z,11.24
2022-10-03T01:21:18.367Z,11.25
2022-10-03T01:22:18.503Z,11.35
2022-10-03T01:23:18.619Z,11.32
2022-10-03T01:24:18.861Z,11.32
2022-10-03T01:25:19.004Z,11.36
2022-10-03T01:26:19.440Z,11.29
2022-10-03T01:27:19.334Z,11.29
2022-10-03T01:28:19.467Z,11.27
2022-10-03T01:29:19.664Z,11.38
2022-10-03T01:30:20.435Z,11.38
2022-10-03T01:31:20.052Z,11.32
2022-10-03T01:32:20.131Z,11.43
2022-10-03T01:33:20.251Z,11.39
2022-10-03T01:34:20.944Z,11.35
2022-10-03T01:35:20.703Z,11.25
2022-10-03T01:36:20.845Z,11.36
2022-10-03T01:37:21.926Z,11.47
2022-10-03T01:38:22.155Z,11.41
2022-10-03T01:39:21.453Z,11.38
2022-10-03T01:40:21.449Z,11.35
2022-10-03T01:41:21.584Z,11.36
2022-10-03T01:42:21.716Z,11.35
2022-10-03T01:43:21.851Z,11.38
2022-10-03T01:44:21.975Z,11.25
2022-10-03T01:45:22.111Z,11.38
2022-10-03T01:46:22.334Z,11.34
2022-10-03T01:47:22.379Z,11.39
2022-10-03T01:48:22.947Z,11.39
2022-10-03T01:49:22.684Z,11.46
2022-10-03T01:50:22.831Z,11.39
2022-10-03T01:51:22.985Z,11.50
2022-10-03T01:52:23.124Z,11.43
2022-10-03T01:53:23.257Z,11.46
2022-10-03T01:54:23.412Z,11.44
2022-10-03T01:55:24.436Z,11.44
2022-10-03T01:56:23.663Z,11.52
2022-10-03T01:57:23.945Z,11.47
2022-10-03T01:58:23.972Z,11.43
2022-10-03T01:59:24.933Z,11.39
2022-10-03T02:00:24.315Z,11.35
2022-10-03T02:01:25.024Z,11.50
2022-10-03T02:02:24.621Z,11.44
2022-10-03T02:03:24.719Z,11.49
2022-10-03T02:04:24.838Z,11.53
2022-10-03T02:05:25.078Z,11.47
2022-10-03T02:06:25.940Z,11.50
2022-10-03T02:07:25.411Z,11.31
2022-10-03T02:08:25.554Z,11.28
2022-10-03T02:09:25.708Z,11.34
2022-10-03T02:10:26.441Z,11.21
2022-10-03T02:11:25.959Z,11.29
2022-10-03T02:12:26.954Z,11.35
2022-10-03T02:13:26.283Z,11.34
2022-10-03T02:14:26.431Z,11.36
2022-10-03T02:15:26.547Z,11.39
2022-10-03T02:16:26.719Z,11.34
2022-10-03T02:17:26.849Z,11.32
2022-10-03T02:18:26.970Z,11.36
2022-10-03T02:19:27.937Z,11.41
2022-10-03T02:20:27.456Z,11.34
2022-10-03T02:21:27.447Z,11.34
2022-10-03T02:22:27.573Z,11.43
2022-10-03T02:23:27.690Z,11.41
2022-10-03T02:24:27.814Z,11.38
2022-10-03T02:25:28.454Z,11.38
2022-10-03T02:26:28.943Z,11.43
2022-10-03T02:27:28.300Z,11.44
2022-10-03T02:28:28.485Z,11.43
2022-10-03T02:29:28.633Z,11.39
2022-10-03T02:30:28.786Z,11.24
2022-10-03T02:31:28.980Z,11.34
2022-10-03T02:32:29.932Z,11.24
2022-10-03T02:33:30.947Z,11.32
2022-10-03T02:34:29.943Z,11.29
2022-10-03T02:35:29.957Z,11.35
2022-10-03T02:36:29.696Z,11.32
2022-10-03T02:37:29.814Z,11.27
2022-10-03T02:38:30.455Z,11.35
2022-10-03T02:39:30.181Z,11.31
2022-10-03T02:40:30.464Z,11.25
2022-10-03T02:41:30.506Z,11.28
2022-10-03T02:42:30.968Z,11.29
2022-10-03T02:43:30.847Z,11.28
2022-10-03T02:44:30.969Z,11.27
2022-10-03T02:45:31.102Z,11.21
2022-10-03T02:46:31.947Z,11.17
2022-10-03T02:47:31.432Z,11.25
2022-10-03T02:48:32.543Z,11.27
2022-10-03T02:49:33.452Z,11.27
2022-10-03T02:50:31.926Z,11.32
2022-10-03T02:51:32.081Z,11.20
2022-10-03T02:52:32.194Z,11.31
2022-10-03T02:53:32.320Z,11.34
2022-10-03T02:54:32.563Z,11.29
2022-10-03T02:55:32.964Z,11.36
2022-10-03T02:56:33.951Z,11.35
2022-10-03T02:57:33.949Z,11.25
2022-10-03T02:58:33.303Z,11.28
2022-10-03T02:59:33.438Z,11.25
2022-10-03T03:00:33.609Z,11.27
2022-10-03T03:01:33.744Z,11.27
2022-10-03T03:02:33.998Z,11.25
2022-10-03T03:03:34.954Z,11.32
2022-10-03T03:04:34.187Z,11.31
2022-10-03T03:05:34.310Z,11.29
2022-10-03T03:06:34.447Z,11.31
2022-10-03T03:07:34.590Z,11.44
2022-10-03T03:08:34.712Z,11.35
2022-10-03T03:09:34.858Z,11.32
2022-10-03T03:10:34.972Z,11.32
2022-10-03T03:11:35.126Z,11.43
2022-10-03T03:12:39.137Z,11.35
2022-10-03T03:13:37.502Z,11.38
2022-10-03T03:14:35.686Z,11.35
2022-10-03T03:15:36.457Z,11.27
2022-10-03T03:16:36.150Z,11.28
2022-10-03T03:17:36.179Z,11.27
2022-10-03T03:18:36.295Z,11.28
2022-10-03T03:19:36.541Z,11.32
2022-10-03T03:20:36.659Z,11.34
2022-10-03T03:21:37.118Z,11.24
2022-10-03T03:22:37.955Z,11.28
2022-10-03T03:23:37.957Z,11.38
2022-10-03T03:24:37.287Z,11.28
2022-10-03T03:25:37.526Z,11.29
2022-10-03T03:26:37.674Z,11.29
2022-10-03T03:27:37.828Z,11.29
2022-10-03T03:28:37.983Z,11.17
2022-10-03T03:29:38.104Z,11.21
2022-10-03T03:30:39.236Z,11.20
2022-10-03T03:31:38.880Z,11.24
2022-10-03T03:32:38.717Z,11.19
2022-10-03T03:33:38.971Z,11.29
2022-10-03T03:34:39.958Z,11.29
2022-10-03T03:35:39.186Z,11.25
2022-10-03T03:36:39.993Z,11.14
2022-10-03T03:37:40.004Z,11.14
2022-10-03T03:38:39.624Z,11.07
2022-10-03T03:39:40.458Z,11.17
2022-10-03T03:40:39.957Z,11.14
2022-10-03T03:41:42.028Z,11.11
2022-10-03T03:42:40.963Z,11.11
2022-10-03T03:43:40.472Z,11.11
2022-10-03T03:44:40.614Z,11.07
2022-10-03T03:45:41.542Z,11.13
2022-10-03T03:46:40.967Z,11.06
2022-10-03T03:47:41.120Z,11.06
2022-10-03T03:48:41.963Z,11.07
2022-10-03T03:49:41.462Z,11.09
2022-10-03T03:50:41.594Z,11.14
2022-10-03T03:51:42.847Z,11.06
2022-10-03T03:52:41.969Z,11.13
2022-10-03T03:53:42.117Z,11.03
2022-10-03T03:54:42.274Z,11.11
2022-10-03T03:55:42.477Z,11.11
2022-10-03T03:56:43.638Z,11.20
2022-10-03T03:57:42.762Z,11.17
2022-10-03T03:58:42.948Z,11.07
2022-10-03T03:59:43.108Z,11.06
2022-10-03T04:00:43.336Z,11.06
2022-10-03T04:01:43.948Z,10.98
2022-10-03T04:02:43.664Z,10.98
2022-10-03T04:03:43.805Z,11.01
2022-10-03T04:04:43.964Z,11.03
2022-10-03T04:05:44.969Z,11.06
2022-10-03T04:06:44.357Z,10.98
2022-10-03T04:07:44.505Z,10.99
2022-10-03T04:08:44.620Z,11.06
2022-10-03T04:09:44.772Z,11.07
2022-10-03T04:10:44.912Z,11.02
2022-10-03T04:11:45.063Z,10.98
2022-10-03T04:12:45.477Z,11.07
2022-10-03T04:13:45.502Z,10.99
2022-10-03T04:14:46.504Z,11.06
2022-10-03T04:15:46.469Z,11.02
2022-10-03T04:16:46.076Z,11.01
2022-10-03T04:17:46.969Z,11.02
2022-10-03T04:18:46.375Z,11.01
2022-10-03T04:19:46.524Z,11.02
2022-10-03T04:20:47.508Z,11.02
2022-10-03T04:21:46.905Z,11.06
2022-10-03T04:22:47.088Z,11.06
2022-10-03T04:23:47.250Z,10.96
2022-10-03T04:24:47.429Z,11.07
2022-10-03T04:25:47.980Z,11.10
2022-10-03T04:26:47.722Z,11.07
2022-10-03T04:27:47.909Z,11.09
2022-10-03T04:28:48.100Z,11.01
2022-10-03T04:29:48.246Z,11.13
2022-10-03T04:30:48.449Z,11.09
2022-10-03T04:31:48.651Z,11.07
2022-10-03T04:32:48.782Z,11.02
2022-10-03T04:33:48.922Z,11.14
2022-10-03T04:34:49.990Z,11.14
2022-10-03T04:35:49.243Z,11.19
2022-10-03T04:36:49.969Z,11.16
2022-10-03T04:37:50.585Z,11.17
2022-10-03T04:38:49.831Z,11.10
2022-10-03T04:39:49.941Z,11.01
2022-10-03T04:40:50.067Z,11.02
2022-10-03T04:41:50.518Z,11.14
2022-10-03T04:42:50.448Z,11.10
2022-10-03T04:43:50.598Z,11.11
2022-10-03T04:44:50.739Z,11.11
2022-10-03T04:45:50.969Z,11.13
2022-10-03T04:46:51.012Z,11.13
2022-10-03T04:47:51.139Z,11.07
2022-10-03T04:48:51.487Z,11.13
2022-10-03T04:49:51.478Z,11.03
2022-10-03T04:50:51.628Z,11.06
2022-10-03T04:51:55.506Z,11.09
2022-10-03T04:52:52.931Z,11.16
2022-10-03T04:53:52.217Z,11.11
2022-10-03T04:54:52.342Z,11.17
2022-10-03T04:55:52.979Z,11.13
2022-10-03T04:56:52.690Z,11.14
2022-10-03T04:57:52.807Z,11.16
2022-10-03T04:58:52.993Z,11.17
2022-10-03T04:59:53.138Z,11.20
2022-10-03T05:00:54.076Z,11.16
2022-10-03T05:01:54.031Z,11.10
2022-10-03T05:02:53.674Z,11.07
2022-10-03T05:03:53.818Z,11.13
2022-10-03T05:04:55.720Z,11.07
2022-10-03T05:05:55.491Z,11.02
2022-10-03T05:06:54.239Z,11.07
2022-10-03T05:07:54.395Z,11.03
2022-10-03T05:08:54.539Z,11.11
2022-10-03T05:09:54.667Z,11.06
2022-10-03T05:10:54.853Z,10.99
2022-10-03T05:11:54.979Z,11.11
2022-10-03T05:12:55.982Z,11.02
2022-10-03T05:13:55.338Z,10.98
2022-10-03T05:14:55.496Z,11.06
2022-10-03T05:15:56.483Z,11.07
2022-10-03T05:16:55.912Z,11.07
2022-10-03T05:17:56.048Z,11.10
2022-10-03T05:18:56.303Z,11.06
2022-10-03T05:19:56.521Z,11.07
2022-10-03T05:20:57.494Z,11.16
2022-10-03T05:21:56.993Z,11.11
2022-10-03T05:22:57.119Z,11.16
2022-10-03T05:23:57.235Z,11.13
2022-10-03T05:24:57.364Z,11.07
2022-10-03T05:26:06.243Z,11.10
2022-10-03T05:26:59.734Z,11.17
2022-10-03T05:27:58.517Z,11.14
2022-10-03T05:28:58.019Z,11.06
2022-10-03T05:29:58.159Z,11.11
2022-10-03T05:30:59.001Z,11.16
2022-10-03T05:31:59.546Z,11.24
2022-10-03T05:32:58.675Z,11.16
2022-10-03T05:33:58.803Z,11.17
2022-10-03T05:34:58.954Z,11.20
2022-10-03T05:35:59.090Z,11.14
2022-10-03T05:36:59.238Z,11.27
2022-10-03T05:37:59.554Z,11.25
2022-10-03T05:39:00.489Z,11.20
2022-10-03T05:40:00.489Z,11.16
2022-10-03T05:41:00.493Z,11.20
2022-10-03T05:42:21.449Z,11.16
2022-10-03T05:43:02.374Z,11.24
2022-10-03T05:44:00.478Z,11.11
2022-10-03T05:45:00.635Z,11.28
2022-10-03T05:46:01.568Z,11.19
2022-10-03T05:47:00.965Z,11.21
2022-10-03T05:48:01.131Z,11.32
2022-10-03T05:49:01.993Z,11.29
2022-10-03T05:50:01.504Z,11.27
2022-10-03T05:51:01.626Z,11.29
2022-10-03T05:52:01.788Z,11.31
2022-10-03T05:53:02.499Z,11.28
2022-10-03T05:54:02.996Z,11.27
2022-10-03T05:55:02.238Z,11.20
2022-10-03T05:56:03.001Z,11.19
2022-10-03T05:57:02.515Z,11.25
2022-10-03T05:58:02.648Z,11.20
2022-10-03T05:59:02.797Z,11.21
2022-10-03T06:00:02.962Z,11.25
2022-10-03T06:01:03.092Z,11.21
2022-10-03T06:02:04.065Z,11.27
2022-10-03T06:03:03.721Z,11.24
2022-10-03T06:04:06.118Z,11.28
2022-10-03T06:05:04.938Z,11.25
2022-10-03T06:06:04.149Z,11.25
2022-10-03T06:07:04.268Z,11.27
2022-10-03T06:08:04.995Z,11.29
2022-10-03T06:09:04.631Z,11.31
2022-10-03T06:10:04.752Z,11.36
2022-10-03T06:11:04.901Z,11.29
2022-10-03T06:12:05.044Z,11.29
2022-10-03T06:13:05.151Z,11.34
2022-10-03T06:14:05.308Z,11.36
2022-10-03T06:15:05.999Z,11.38
2022-10-03T06:16:06.533Z,11.36
2022-10-03T06:17:05.783Z,11.34
2022-10-03T06:18:05.900Z,11.29
2022-10-03T06:19:06.197Z,11.34
2022-10-03T06:20:06.308Z,11.39
2022-10-03T06:21:06.532Z,11.38
2022-10-03T06:22:06.775Z,11.36
2022-10-03T06:23:08.007Z,11.44
2022-10-03T06:24:07.244Z,11.35
2022-10-03T06:25:07.513Z,11.41
2022-10-03T06:26:07.517Z,11.50
2022-10-03T06:27:07.654Z,11.39
2022-10-03T06:28:07.857Z,11.53
2022-10-03T06:29:07.909Z,11.39
2022-10-03T06:30:09.005Z,11.52
2022-10-03T06:31:08.274Z,11.52
2022-10-03T06:32:08.511Z,11.59
2022-10-03T06:33:08.628Z,11.64
2022-10-03T06:34:08.796Z,11.57
2022-10-03T06:35:09.014Z,11.65
2022-10-03T06:36:10.003Z,11.65
2022-10-03T06:37:09.380Z,11.53
2022-10-03T06:38:10.024Z,11.65
2022-10-03T06:39:09.643Z,11.70
2022-10-03T06:40:10.511Z,11.59
2022-10-03T06:41:09.976Z,11.61
2022-10-03T06:42:10.098Z,11.68
2022-10-03T06:43:10.247Z,11.61
2022-10-03T06:44:10.374Z,11.74
2022-10-03T06:45:10.506Z,11.65
2022-10-03T06:46:10.657Z,11.62
2022-10-03T06:47:11.511Z,11.64
2022-10-03T06:48:11.148Z,11.75
2022-10-03T06:49:11.267Z,11.75
2022-10-03T06:50:11.509Z,11.71
2022-10-03T06:51:11.647Z,11.71
2022-10-03T06:52:11.785Z,11.74
2022-10-03T06:53:12.511Z,11.82
2022-10-03T06:54:12.524Z,11.75
2022-10-03T06:55:12.292Z,11.77
2022-10-03T06:56:12.472Z,11.87
2022-10-03T06:57:13.510Z,11.87
2022-10-03T06:58:12.731Z,11.89
2022-10-03T06:59:13.030Z,11.90
2022-10-03T07:00:13.522Z,11.94
2022-10-03T07:01:13.332Z,11.97
2022-10-03T07:02:13.537Z,11.96
2022-10-03T07:03:14.515Z,11.90
2022-10-03T07:04:13.905Z,11.96
2022-10-03T07:05:14.052Z,12.04
2022-10-03T07:06:14.180Z,12.05
2022-10-03T07:07:14.419Z,12.15
2022-10-03T07:08:14.567Z,12.04
2022-10-03T07:09:14.692Z,12.12
2022-10-03T07:10:15.513Z,12.16
2022-10-03T07:11:15.030Z,12.09
2022-10-03T07:12:16.012Z,12.19
2022-10-03T07:13:15.395Z,12.15
2022-10-03T07:14:15.537Z,12.19
2022-10-03T07:15:16.529Z,12.20
2022-10-03T07:16:31.239Z,12.24
2022-10-03T07:17:19.104Z,12.15
2022-10-03T07:18:16.373Z,12.23
2022-10-03T07:19:16.529Z,12.20
2022-10-03T07:20:16.683Z,12.27
2022-10-03T07:21:17.558Z,12.30
2022-10-03T07:22:16.937Z,12.26
2022-10-03T07:23:17.083Z,12.27
2022-10-03T07:24:17.232Z,12.44
2022-10-03T07:25:17.503Z,12.45
2022-10-03T07:26:17.618Z,12.45
2022-10-03T07:27:18.517Z,12.52
2022-10-03T07:28:18.583Z,12.48
2022-10-03T07:29:18.070Z,12.59
2022-10-03T07:30:18.320Z,12.62
2022-10-03T07:31:18.618Z,12.77
2022-10-03T07:32:18.683Z,12.78
2022-10-03T07:33:19.517Z,12.71
2022-10-03T07:34:19.517Z,12.77
2022-10-03T07:35:19.106Z,12.74
2022-10-03T07:36:19.334Z,12.78
2022-10-03T07:37:19.583Z,12.81
2022-10-03T07:38:20.556Z,12.92
2022-10-03T07:39:20.016Z,12.89
2022-10-03T07:40:20.252Z,13.02
2022-10-03T07:41:20.481Z,12.96
2022-10-03T07:42:20.615Z,12.95
2022-10-03T07:43:20.731Z,13.11
2022-10-03T07:44:20.992Z,13.03
2022-10-03T07:45:21.122Z,13.12
2022-10-03T07:46:22.050Z,12.97
2022-10-03T07:47:22.044Z,13.03
2022-10-03T07:48:22.525Z,13.00
2022-10-03T07:49:22.000Z,13.02
2022-10-03T07:50:22.584Z,12.97
2022-10-03T07:51:22.373Z,13.02
2022-10-03T07:52:22.489Z,13.03
2022-10-03T07:53:22.655Z,12.97
2022-10-03T07:54:22.834Z,13.14
2022-10-03T07:55:23.530Z,13.12
2022-10-03T07:56:23.155Z,13.20
2022-10-03T07:57:24.023Z,13.29
2022-10-03T07:58:23.580Z,13.40
2022-10-03T07:59:23.726Z,13.47
2022-10-03T08:00:23.877Z,13.71
2022-10-03T08:01:24.005Z,13.95
2022-10-03T08:02:24.216Z,14.14
2022-10-03T08:03:24.316Z,14.24
2022-10-03T08:04:24.541Z,14.37
2022-10-03T08:05:24.689Z,14.50
2022-10-03T08:06:24.825Z,14.65
2022-10-03T08:07:24.953Z,14.64
2022-10-03T08:08:25.083Z,14.71
2022-10-03T08:09:25.220Z,15.36
2022-10-03T08:10:25.338Z,15.94
2022-10-03T08:11:25.537Z,16.38
2022-10-03T08:12:25.647Z,16.60
2022-10-03T08:13:25.885Z,16.68
2022-10-03T08:14:26.111Z,16.89
2022-10-03T08:15:26.543Z,17.67
2022-10-03T08:16:26.403Z,18.19
2022-10-03T08:17:26.647Z,18.83
2022-10-03T08:18:27.532Z,18.86
2022-10-03T08:19:27.532Z,18.79
2022-10-03T08:20:27.156Z,18.29
2022-10-03T08:21:27.322Z,17.85
2022-10-03T08:22:27.458Z,17.47
2022-10-03T08:23:27.580Z,17.30
2022-10-03T08:24:27.716Z,16.96
2022-10-03T08:25:27.844Z,16.65
2022-10-03T08:26:28.006Z,16.37
2022-10-03T08:27:28.135Z,16.68
2022-10-03T08:28:28.337Z,17.43
2022-10-03T08:29:28.440Z,18.19
2022-10-03T08:30:28.556Z,18.55
2022-10-03T08:31:29.572Z,18.55
2022-10-03T08:32:28.864Z,18.68
2022-10-03T08:33:29.565Z,18.76
2022-10-03T08:34:29.170Z,18.77
2022-10-03T08:35:30.041Z,18.65
2022-10-03T08:36:29.535Z,18.64
2022-10-03T08:37:29.688Z,18.79
2022-10-03T08:38:29.836Z,18.95
2022-10-03T08:39:30.538Z,19.14
2022-10-03T08:40:30.181Z,19.53
2022-10-03T08:41:30.422Z,19.95
2022-10-03T08:42:31.053Z,20.62
2022-10-03T08:43:30.818Z,20.95
2022-10-03T08:44:31.068Z,21.53
2022-10-03T08:45:32.043Z,21.94
2022-10-03T08:46:32.082Z,22.12
2022-10-03T08:47:31.545Z,22.69
2022-10-03T08:48:31.702Z,22.44
2022-10-03T08:49:32.874Z,22.31
2022-10-03T08:50:32.568Z,22.37
2022-10-03T08:51:32.219Z,22.52
2022-10-03T08:52:32.432Z,22.14
2022-10-03T08:53:32.581Z,21.46
2022-10-03T08:54:32.764Z,21.17
2022-10-03T08:55:32.919Z,20.83
2022-10-03T08:56:33.154Z,20.47
2022-10-03T08:57:34.047Z,20.25
2022-10-03T08:58:34.043Z,19.86
2022-10-03T08:59:34.064Z,19.31
2022-10-03T09:00:33.699Z,18.70
2022-10-03T09:01:33.973Z,18.22
2022-10-03T09:02:34.078Z,17.79
2022-10-03T09:03:39.152Z,17.36
2022-10-03T09:04:36.560Z,17.23
2022-10-03T09:05:35.581Z,16.89
2022-10-03T09:06:35.550Z,16.71
2022-10-03T09:07:35.099Z,16.55
2022-10-03T09:08:35.249Z,16.31
2022-10-03T09:09:37.052Z,16.12
2022-10-03T09:10:35.544Z,16.00
2022-10-03T09:11:35.718Z,15.88
2022-10-03T09:12:36.063Z,15.79
2022-10-03T09:13:36.120Z,15.75
2022-10-03T09:14:37.110Z,15.64
2022-10-03T09:15:36.498Z,15.49
2022-10-03T09:16:36.951Z,15.54
2022-10-03T09:17:36.813Z,15.36
2022-10-03T09:18:37.561Z,15.48
2022-10-03T09:19:37.185Z,15.35
2022-10-03T09:20:37.373Z,15.13
2022-10-03T09:21:59.457Z,14.99
2022-10-03T09:22:37.665Z,14.98
2022-10-03T09:23:37.831Z,14.90
2022-10-03T09:24:38.558Z,14.64
2022-10-03T09:25:38.200Z,14.75
2022-10-03T09:26:38.704Z,14.72
2022-10-03T09:27:39.097Z,14.67
2022-10-03T09:28:39.641Z,14.65
2022-10-03T09:29:38.933Z,14.53
2022-10-03T09:30:39.175Z,14.54
2022-10-03T09:31:39.670Z,15.21
2022-10-03T09:32:39.413Z,15.78
2022-10-03T09:33:40.562Z,16.34
2022-10-03T09:34:39.698Z,16.90
2022-10-03T09:35:39.863Z,17.26
2022-10-03T09:36:40.037Z,17.07
2022-10-03T09:37:40.188Z,16.93
2022-10-03T09:38:40.361Z,16.81
2022-10-03T09:39:40.508Z,17.00
2022-10-03T09:40:40.656Z,17.23
2022-10-03T09:41:41.093Z,17.13
2022-10-03T09:42:40.962Z,16.90
2022-10-03T09:43:41.129Z,16.74
2022-10-03T09:44:42.062Z,16.41
2022-10-03T09:45:42.073Z,16.22
2022-10-03T09:46:45.650Z,15.99
2022-10-03T09:47:42.802Z,15.72
2022-10-03T09:48:42.067Z,15.52
2022-10-03T09:49:42.190Z,15.35
2022-10-03T09:50:42.318Z,15.21
2022-10-03T09:51:43.354Z,14.90
2022-10-03T09:52:42.698Z,14.91
2022-10-03T09:53:42.862Z,14.72
2022-10-03T09:54:42.974Z,14.80
2022-10-03T09:55:43.200Z,14.75
2022-10-03T09:56:43.501Z,14.62
2022-10-03T09:57:43.609Z,14.54
2022-10-03T09:58:43.889Z,14.47
2022-10-03T09:59:44.006Z,14.46
2022-10-03T10:00:44.260Z,14.46
2022-10-03T10:01:44.425Z,14.46
2022-10-03T10:02:45.074Z,14.84
2022-10-03T10:03:44.854Z,15.03
2022-10-03T10:04:57.857Z,15.36
2022-10-03T10:05:47.593Z,15.97
2022-10-03T10:06:45.269Z,16.67
2022-10-03T10:07:45.388Z,17.14
2022-10-03T10:08:46.076Z,16.98
2022-10-03T10:09:45.674Z,16.75
2022-10-03T10:10:45.820Z,16.52
2022-10-03T10:11:45.945Z,16.27
2022-10-03T10:12:46.099Z,16.18
2022-10-03T10:14:06.828Z,15.93
2022-10-03T10:14:48.391Z,15.94
2022-10-03T10:15:47.646Z,15.74
2022-10-03T10:16:48.320Z,15.74
2022-10-03T10:17:47.995Z,15.78
2022-10-03T10:18:47.117Z,15.67
2022-10-03T10:19:47.252Z,15.45
2022-10-03T10:20:47.399Z,15.43
2022-10-03T10:21:48.077Z,15.59
2022-10-03T10:22:48.577Z,15.67
2022-10-03T10:23:48.100Z,15.67
2022-10-03T10:24:48.154Z,15.96
2022-10-03T10:25:49.078Z,16.65
2022-10-03T10:26:48.467Z,17.20
2022-10-03T10:27:49.627Z,17.74
2022-10-03T10:28:48.780Z,18.22
2022-10-03T10:29:48.951Z,18.57
2022-10-03T10:30:50.081Z,18.50
2022-10-03T10:31:49.447Z,18.27
2022-10-03T10:32:49.525Z,17.92
2022-10-03T10:33:49.677Z,17.71
2022-10-03T10:34:49.853Z,17.35
2022-10-03T10:35:49.999Z,17.17
2022-10-03T10:36:50.180Z,16.88
2022-10-03T10:37:51.084Z,16.65
2022-10-03T10:38:50.466Z,16.49
2022-10-03T10:39:50.581Z,16.31
2022-10-03T10:40:50.731Z,16.00
2022-10-03T10:41:51.915Z,15.81
2022-10-03T10:42:51.031Z,15.64
2022-10-03T10:43:51.211Z,15.59
2022-10-03T10:44:51.372Z,15.36
2022-10-03T10:45:51.542Z,15.28
2022-10-03T10:46:52.828Z,15.08
2022-10-03T10:47:51.938Z,15.01
2022-10-03T10:48:52.087Z,15.05
2022-10-03T10:49:52.242Z,15.11
2022-10-03T10:50:52.413Z,15.08
2022-10-03T10:51:52.564Z,15.02
2022-10-03T10:52:52.742Z,15.02
2022-10-03T10:53:52.902Z,15.06
2022-10-03T10:54:53.055Z,15.12
2022-10-03T10:55:53.190Z,15.20
2022-10-03T10:56:54.114Z,15.09
2022-10-03T10:57:53.472Z,15.12
2022-10-03T10:58:53.624Z,15.17
2022-10-03T10:59:53.753Z,15.20
2022-10-03T11:00:54.669Z,15.15
2022-10-03T11:01:54.065Z,15.12
2022-10-03T11:02:55.091Z,14.99
2022-10-03T11:03:54.464Z,15.06
2022-10-03T11:04:54.640Z,15.02
2022-10-03T11:05:54.784Z,15.05
2022-10-03T11:06:56.040Z,15.21
2022-10-03T11:07:55.602Z,15.43
2022-10-03T11:08:55.468Z,15.68
2022-10-03T11:09:55.596Z,15.78
2022-10-03T11:10:55.718Z,16.01
2022-10-03T11:11:55.849Z,16.26
2022-10-03T11:12:56.002Z,16.63
2022-10-03T11:13:57.094Z,16.86
2022-10-03T11:14:57.097Z,17.15
2022-10-03T11:15:57.143Z,17.23
2022-10-03T11:16:56.668Z,17.23
2022-10-03T11:17:56.923Z,17.26
2022-10-03T11:18:57.045Z,17.32
2022-10-03T11:19:57.163Z,17.46
2022-10-03T11:20:57.300Z,17.67
2022-10-03T11:21:57.610Z,17.71
2022-10-03T11:23:01.120Z,17.76
2022-10-03T11:23:59.817Z,17.89
2022-10-03T11:24:58.021Z,17.79
2022-10-03T11:25:58.174Z,17.76
2022-10-03T11:26:58.331Z,17.74
2022-10-03T11:27:58.549Z,17.76
2022-10-03T11:28:58.607Z,17.76
2022-10-03T11:29:59.600Z,17.82
2022-10-03T11:30:58.994Z,18.04
2022-10-03T11:31:59.176Z,18.06
2022-10-03T11:32:59.384Z,18.15
2022-10-03T11:33:59.669Z,18.28
2022-10-03T11:34:59.720Z,18.15
2022-10-03T11:35:59.884Z,18.22
2022-10-03T11:37:00.031Z,18.18
2022-10-03T11:38:00.295Z,18.31
2022-10-03T11:39:00.445Z,18.31
2022-10-03T11:40:00.579Z,18.37
2022-10-03T11:41:00.725Z,18.33
2022-10-03T11:42:00.871Z,18.22
2022-10-03T11:43:01.601Z,18.22
2022-10-03T11:44:02.102Z,18.09
2022-10-03T11:45:03.129Z,18.12
2022-10-03T11:46:01.708Z,18.06
2022-10-03T11:47:01.725Z,17.95
2022-10-03T11:48:01.856Z,18.00
2022-10-03T11:49:01.988Z,17.88
2022-10-03T11:50:02.605Z,17.84
2022-10-03T11:51:03.105Z,17.91
2022-10-03T11:52:02.446Z,17.97
2022-10-03T11:53:02.629Z,17.99
2022-10-03T11:54:26.365Z,17.97
2022-10-03T11:55:04.931Z,17.94
2022-10-03T11:56:03.610Z,17.76
2022-10-03T11:57:03.228Z,17.70
2022-10-03T11:58:03.408Z,17.66
2022-10-03T11:59:03.554Z,17.48
2022-10-03T12:00:04.694Z,17.35
2022-10-03T12:01:04.124Z,17.41
2022-10-03T12:02:04.065Z,17.38
2022-10-03T12:03:04.342Z,17.08
2022-10-03T12:04:04.496Z,17.06
2022-10-03T12:05:04.631Z,17.08
2022-10-03T12:06:04.770Z,17.10
2022-10-03T12:07:05.611Z,16.98
2022-10-03T12:08:05.158Z,17.11
2022-10-03T12:09:05.347Z,16.98
2022-10-03T12:10:06.121Z,17.11
2022-10-03T12:11:05.729Z,17.18
2022-10-03T12:12:06.617Z,17.15
2022-10-03T12:13:06.620Z,17.25
2022-10-03T12:14:10.976Z,17.35
2022-10-03T12:15:09.112Z,17.50
2022-10-03T12:16:06.595Z,17.62
2022-10-03T12:17:06.682Z,17.55
2022-10-03T12:18:06.854Z,17.44
2022-10-03T12:19:07.045Z,17.40
2022-10-03T12:20:08.121Z,17.32
2022-10-03T12:21:08.123Z,17.35
2022-10-03T12:22:07.504Z,17.33
2022-10-03T12:23:07.656Z,17.23
2022-10-03T12:24:07.873Z,17.14
2022-10-03T12:25:08.633Z,16.99
2022-10-03T12:26:08.634Z,16.90
2022-10-03T12:27:08.412Z,17.03
2022-10-03T12:28:08.634Z,17.13
2022-10-03T12:29:08.781Z,17.23
2022-10-03T12:30:08.934Z,17.30
2022-10-03T12:31:09.122Z,17.30
2022-10-03T12:32:09.343Z,17.15
2022-10-03T12:33:09.505Z,17.13
2022-10-03T12:34:09.672Z,16.88
2022-10-03T12:35:10.645Z,16.78
2022-10-03T12:36:10.060Z,16.80
2022-10-03T12:37:12.133Z,16.89
2022-10-03T12:38:11.141Z,16.92
2022-10-03T12:39:10.541Z,16.92
2022-10-03T12:40:10.943Z,16.68
2022-10-03T12:41:11.633Z,16.77
2022-10-03T12:42:11.004Z,16.74
2022-10-03T12:43:11.187Z,16.63
2022-10-03T12:44:12.126Z,16.48
2022-10-03T12:45:12.145Z,16.48
2022-10-03T12:46:12.736Z,16.42
2022-10-03T12:47:12.627Z,16.44
2022-10-03T12:48:13.041Z,16.53
2022-10-03T12:49:12.209Z,16.62
2022-10-03T12:50:12.366Z,16.83
2022-10-03T12:51:13.131Z,16.98
2022-10-03T12:52:12.756Z,17.03
2022-10-03T12:53:12.897Z,17.06
2022-10-03T12:54:13.091Z,17.15